Time;durP1;ratioP1;P1;durP2;ratioP2;P2;SDS_P1;SDS_P2;PMS_P1;PMS_P2;Temp;Humidity;BMP_temperature;BMP_pressure;BME280_temperature;BME280_humidity;BME280_pressure;Samples;Min_cycle;Max_cycle;Signal;HPM_P1;HPM_P2
2022/10/13 00:02:11;;;;;;;15.53;10.00;;;13.60;99.90;;;;;;5116180;28;20208;-88
2022/10/13 00:04:44;;;;;;;15.20;10.07;;;13.60;99.90;;;;;;5116310;28;20211;-87
2022/10/13 00:07:17;;;;;;;14.50;9.73;;;13.60;99.90;;;;;;5117014;28;20683;-88
2022/10/13 00:09:44;;;;;;;11.63;9.43;;;13.60;99.90;;;;;;5116907;28;20185;-87
2022/10/13 00:12:16;;;;;;;15.67;10.93;;;13.60;99.90;;;;;;5116479;28;20188;-87
2022/10/13 00:14:44;;;;;;;15.07;10.43;;;13.60;99.90;;;;;;5115884;28;20210;-87
2022/10/13 00:17:12;;;;;;;16.90;10.97;;;13.50;99.90;;;;;;5114245;28;20199;-87
2022/10/13 00:19:40;;;;;;;13.03;10.47;;;13.50;99.90;;;;;;5114574;28;20213;-87
2022/10/13 00:22:12;;;;;;;13.40;10.27;;;13.50;99.90;;;;;;5115282;28;20184;-86
2022/10/13 00:24:42;;;;;;;15.07;9.70;;;13.50;99.90;;;;;;5114746;28;20200;-87
2022/10/13 00:27:12;;;;;;;18.60;11.03;;;13.40;99.90;;;;;;5115270;28;20193;-87
2022/10/13 00:29:42;;;;;;;17.13;10.70;;;13.40;99.90;;;;;;5097465;28;20200;-88
2022/10/13 00:32:16;;;;;;;17.30;10.47;;;13.40;99.90;;;;;;5114524;28;20648;-87
2022/10/13 00:34:43;;;;;;;13.50;10.00;;;13.40;99.90;;;;;;5097195;28;20207;-87
2022/10/13 00:37:10;;;;;;;14.00;9.57;;;13.40;99.90;;;;;;5115395;28;20201;-87
2022/10/13 00:39:40;;;;;;;16.48;11.40;;;13.30;99.90;;;;;;5114111;28;20440;-87
2022/10/13 00:42:11;;;;;;;17.73;10.70;;;13.30;99.90;;;;;;5115749;28;20184;-88
2022/10/13 00:45:09;;;;;;;18.50;10.33;;;13.50;99.90;;;;;;5119475;28;20195;-88
2022/10/13 00:47:41;;;;;;;16.90;10.33;;;13.50;99.90;;;;;;5118917;28;20212;-87
2022/10/13 00:50:14;;;;;;;13.93;9.63;;;13.50;99.90;;;;;;5117731;28;20201;-87
2022/10/13 00:52:42;;;;;;;14.17;9.97;;;13.40;99.90;;;;;;5119529;28;20222;-87
2022/10/13 00:55:12;;;;;;;15.10;9.30;;;13.40;99.90;;;;;;5118890;28;20207;-87
2022/10/13 00:57:46;;;;;;;14.00;9.93;;;13.50;99.90;;;;;;5118090;28;20204;-87
2022/10/13 01:00:13;;;;;;;15.23;9.90;;;13.40;99.90;;;;;;5117419;28;20211;-87
2022/10/13 01:02:42;;;;;;;19.27;10.73;;;13.40;99.90;;;;;;5117566;28;20549;-87
2022/10/13 01:05:11;;;;;;;12.73;9.93;;;13.40;99.90;;;;;;5118018;28;20204;-87
2022/10/13 01:07:41;;;;;;;17.50;10.30;;;13.40;99.90;;;;;;5117349;28;20207;-86
2022/10/13 01:10:11;;;;;;;17.52;11.77;;;13.40;99.90;;;;;;5116472;28;20742;-87
2022/10/13 01:12:50;;;;;;;15.10;10.50;;;13.50;99.90;;;;;;5118844;28;20223;-86
2022/10/13 01:15:26;;;;;;;10.97;9.10;;;13.40;99.90;;;;;;5117486;28;20222;-87
2022/10/13 01:18:01;;;;;;;16.57;9.77;;;13.30;99.90;;;;;;5117452;28;20208;-87
2022/10/13 01:20:49;;;;;;;12.80;9.27;;;13.30;99.90;;;;;;5117151;28;20215;-87
2022/10/13 01:23:57;;;;;;;14.00;9.03;;;13.30;99.90;;;;;;5118590;28;20208;-87
2022/10/13 01:26:52;;;;;;;11.50;8.70;;;13.30;99.90;;;;;;5122552;28;20195;-87
2022/10/13 01:29:37;;;;;;;12.40;9.17;;;13.30;99.90;;;;;;5106161;28;20259;-87
2022/10/13 01:32:12;;;;;;;12.40;9.60;;;13.20;99.90;;;;;;5126574;28;20207;-88
2022/10/13 01:34:48;;;;;;;12.60;9.17;;;13.10;99.90;;;;;;5126682;28;20224;-89
2022/10/13 01:37:24;;;;;;;12.60;9.37;;;13.20;99.90;;;;;;5130020;28;20203;-87
2022/10/13 01:39:57;;;;;;;14.33;10.20;;;13.30;99.90;;;;;;5127345;28;20207;-86
2022/10/13 01:42:34;;;;;;;15.10;10.37;;;13.30;99.90;;;;;;5125264;28;20200;-87
2022/10/13 01:45:03;;;;;;;14.37;9.33;;;13.30;99.90;;;;;;5119278;28;20188;-87
2022/10/13 01:47:35;;;;;;;10.97;9.80;;;13.20;99.90;;;;;;5119562;28;20670;-87
2022/10/13 01:50:06;;;;;;;13.27;9.93;;;13.40;99.90;;;;;;5116812;27;20553;-87
2022/10/13 01:52:38;;;;;;;14.90;9.80;;;13.30;99.90;;;;;;5116679;28;20208;-87
2022/10/13 01:55:09;;;;;;;13.67;10.17;;;13.30;99.90;;;;;;5116711;28;20210;-85
2022/10/13 01:57:44;;;;;;;16.80;9.90;;;13.40;99.90;;;;;;5100136;28;20204;-87
2022/10/13 02:00:16;;;;;;;14.47;9.60;;;13.40;99.90;;;;;;5117852;28;20203;-86
2022/10/13 02:03:01;;;;;;;15.27;9.83;;;13.40;99.90;;;;;;5117057;28;20200;-86
2022/10/13 02:05:47;;;;;;;19.63;10.37;;;13.30;99.90;;;;;;5118214;28;20195;-87
2022/10/13 02:08:22;;;;;;;12.73;9.17;;;13.30;99.90;;;;;;5117495;28;20201;-87
2022/10/13 02:10:57;;;;;;;15.87;9.70;;;13.40;99.90;;;;;;5118017;28;20206;-87
2022/10/13 02:13:28;;;;;;;11.97;9.30;;;13.20;99.90;;;;;;5115389;28;20229;-87
2022/10/13 02:16:00;;;;;;;11.60;8.83;;;13.30;99.90;;;;;;5116273;28;20662;-89
2022/10/13 02:18:36;;;;;;;16.60;9.60;;;13.20;99.90;;;;;;5116783;28;20204;-87
2022/10/13 02:21:06;;;;;;;13.13;9.00;;;13.10;99.90;;;;;;5117348;28;20682;-89
2022/10/13 02:23:33;;;;;;;17.80;9.60;;;13.10;99.90;;;;;;5117744;28;20215;-88
2022/10/13 02:26:01;;;;;;;12.50;10.00;;;13.30;99.90;;;;;;5118814;28;20208;-87
2022/10/13 02:28:29;;;;;;;13.93;9.90;;;13.20;99.90;;;;;;5117983;28;20219;-87
2022/10/13 02:31:02;;;;;;;17.07;10.77;;;13.30;99.90;;;;;;5117642;28;20215;-86
2022/10/13 02:33:29;;;;;;;15.13;9.57;;;13.20;99.90;;;;;;5117031;28;20228;-88
2022/10/13 02:35:57;;;;;;;18.20;9.27;;;13.30;99.90;;;;;;5117653;28;20556;-88
2022/10/13 02:38:26;;;;;;;15.73;9.50;;;13.30;99.90;;;;;;5116045;28;20269;-87
2022/10/13 02:40:54;;;;;;;19.77;11.75;;;13.30;99.90;;;;;;5116051;28;20425;-87
2022/10/13 02:43:23;;;;;;;16.40;10.00;;;13.30;99.90;;;;;;5117555;28;20204;-87
2022/10/13 02:45:50;;;;;;;15.60;10.10;;;13.30;99.90;;;;;;5077130;28;1172453;-89
2022/10/13 02:48:18;;;;;;;15.07;9.43;;;13.30;99.90;;;;;;5119670;28;20713;-87
2022/10/13 02:50:48;;;;;;;12.90;9.30;;;13.30;99.90;;;;;;5119495;28;20229;-87
2022/10/13 02:53:17;;;;;;;13.27;9.23;;;13.30;99.90;;;;;;5118707;28;20220;-87
2022/10/13 02:55:45;;;;;;;16.13;9.13;;;13.40;99.90;;;;;;5119854;28;20207;-88
2022/10/13 02:58:11;;;;;;;16.90;9.43;;;13.40;99.90;;;;;;5118886;28;20208;-87
2022/10/13 03:00:39;;;;;;;15.83;9.90;;;13.40;99.90;;;;;;5118347;28;20208;-87
2022/10/13 03:03:07;;;;;;;18.23;9.20;;;13.30;99.90;;;;;;5116982;28;20215;-88
2022/10/13 03:05:34;;;;;;;15.30;9.70;;;13.30;99.90;;;;;;5116612;28;20204;-87
2022/10/13 03:08:04;;;;;;;13.90;9.90;;;13.00;99.90;;;;;;5118111;28;20196;-87
2022/10/13 03:10:34;;;;;;;19.45;12.13;;;13.10;99.90;;;;;;5116772;28;20689;-86
2022/10/13 03:13:03;;;;;;;18.40;10.87;;;13.30;99.90;;;;;;5118699;28;20212;-87
2022/10/13 03:15:49;;;;;;;13.80;10.37;;;13.30;99.90;;;;;;5118678;28;20193;-87
2022/10/13 03:18:22;;;;;;;15.73;9.93;;;13.30;99.90;;;;;;5118425;28;20201;-88
2022/10/13 03:20:57;;;;;;;16.47;9.93;;;13.30;99.90;;;;;;5116775;28;20208;-87
2022/10/13 03:23:26;;;;;;;15.87;10.70;;;13.20;99.90;;;;;;5116722;28;20203;-88
2022/10/13 03:26:00;;;;;;;16.80;10.93;;;13.20;99.90;;;;;;5117966;28;20195;-88
2022/10/13 03:28:30;;;;;;;15.50;11.10;;;13.30;99.90;;;;;;5116316;28;20200;-86
2022/10/13 03:31:05;;;;;;;18.97;10.90;;;13.40;99.90;;;;;;5118422;28;20204;-88
2022/10/13 03:33:32;;;;;;;15.30;10.90;;;13.20;99.90;;;;;;5117432;28;20234;-87
2022/10/13 03:36:01;;;;;;;23.60;13.07;;;13.10;99.90;;;;;;5118548;28;20195;-87
2022/10/13 03:38:30;;;;;;;21.00;12.40;;;13.00;99.90;;;;;;5116517;28;20208;-86
2022/10/13 03:40:57;;;;;;;22.63;15.00;;;13.00;99.90;;;;;;5117407;28;20440;-89
2022/10/13 03:43:26;;;;;;;21.73;12.90;;;13.10;99.90;;;;;;5117792;28;20208;-86
2022/10/13 03:45:57;;;;;;;22.27;13.20;;;13.10;99.90;;;;;;5120746;28;20214;-86
2022/10/13 03:48:24;;;;;;;20.13;12.53;;;13.10;99.90;;;;;;5118437;28;20211;-87
2022/10/13 03:50:52;;;;;;;21.97;12.07;;;13.00;99.90;;;;;;5118806;28;20231;-88
2022/10/13 03:53:20;;;;;;;21.73;13.27;;;13.00;99.90;;;;;;5116778;28;20203;-89
2022/10/13 03:55:56;;;;;;;22.93;13.13;;;12.90;99.90;;;;;;5118105;28;20199;-87
2022/10/13 03:58:28;;;;;;;24.97;13.50;;;13.00;99.90;;;;;;5101026;28;20203;-87
2022/10/13 04:01:02;;;;;;;23.00;13.70;;;12.90;99.90;;;;;;5119750;28;20204;-86
2022/10/13 04:03:29;;;;;;;19.77;12.50;;;12.90;99.90;;;;;;5120279;28;20195;-88
2022/10/13 04:05:59;;;;;;;23.20;13.50;;;12.90;99.90;;;;;;5120762;28;20189;-86
2022/10/13 04:08:29;;;;;;;24.30;13.50;;;12.90;99.90;;;;;;5119155;28;20196;-86
2022/10/13 04:11:01;;;;;;;19.23;13.47;;;12.90;99.90;;;;;;5117971;28;20206;-87
2022/10/13 04:13:32;;;;;;;20.47;13.20;;;12.90;99.90;;;;;;5116193;28;20203;-86
2022/10/13 04:16:02;;;;;;;24.07;13.93;;;13.00;99.90;;;;;;5113786;28;20233;-86
2022/10/13 04:18:32;;;;;;;24.40;14.77;;;13.20;99.90;;;;;;5114501;28;20213;-86
2022/10/13 04:21:09;;;;;;;23.20;14.47;;;13.00;99.90;;;;;;5114927;28;20195;-86
2022/10/13 04:23:37;;;;;;;27.03;14.63;;;12.90;99.90;;;;;;5114755;28;20192;-86
2022/10/13 04:26:15;;;;;;;23.17;14.90;;;13.00;99.90;;;;;;5114097;28;20215;-86
2022/10/13 04:28:44;;;;;;;28.40;15.03;;;13.10;99.90;;;;;;5118133;28;20210;-85
2022/10/13 04:31:12;;;;;;;24.47;14.80;;;13.00;99.90;;;;;;5106014;28;20204;-86
2022/10/13 04:33:45;;;;;;;24.17;14.73;;;13.00;99.90;;;;;;5115709;28;20223;-87
2022/10/13 04:36:15;;;;;;;21.27;13.87;;;12.90;99.90;;;;;;5114588;28;20203;-86
2022/10/13 04:38:44;;;;;;;25.63;15.60;;;13.00;99.90;;;;;;5114556;28;20185;-86
2022/10/13 04:41:14;;;;;;;22.73;15.77;;;13.20;99.90;;;;;;5113186;28;20211;-86
2022/10/13 04:43:43;;;;;;;22.10;14.60;;;13.10;99.90;;;;;;5114630;28;20196;-86
2022/10/13 04:46:14;;;;;;;23.80;15.50;;;13.20;99.90;;;;;;5115248;28;20197;-86
2022/10/13 04:48:41;;;;;;;24.20;14.97;;;13.20;99.90;;;;;;5114164;28;20621;-86
2022/10/13 04:51:11;;;;;;;23.53;15.07;;;13.10;99.90;;;;;;5114137;28;20224;-86
2022/10/13 04:53:39;;;;;;;26.57;15.87;;;13.00;99.90;;;;;;5113954;28;20196;-85
2022/10/13 04:56:08;;;;;;;24.77;15.27;;;12.90;99.90;;;;;;5114420;28;20204;-86
2022/10/13 04:58:39;;;;;;;29.13;15.97;;;12.90;99.90;;;;;;5113255;28;20236;-86
2022/10/13 05:01:11;;;;;;;24.93;15.10;;;13.10;99.90;;;;;;5113960;28;20214;-87
2022/10/13 05:03:38;;;;;;;31.50;15.83;;;13.00;99.90;;;;;;5094165;28;20212;-87
2022/10/13 05:06:12;;;;;;;26.33;15.53;;;13.00;99.90;;;;;;5093984;28;20222;-87
2022/10/13 05:08:39;;;;;;;30.80;18.33;;;13.00;99.90;;;;;;5093632;28;20445;-86
2022/10/13 05:11:09;;;;;;;29.27;16.87;;;13.00;99.90;;;;;;5092854;28;20208;-86
2022/10/13 05:13:37;;;;;;;31.27;16.27;;;13.00;99.90;;;;;;5093485;28;20205;-86
2022/10/13 05:16:10;;;;;;;27.77;15.93;;;13.00;99.90;;;;;;5094021;28;20204;-85
2022/10/13 05:18:40;;;;;;;27.27;15.97;;;13.10;99.90;;;;;;5093508;28;20200;-84
2022/10/13 05:21:08;;;;;;;31.23;17.17;;;13.10;99.90;;;;;;5092948;28;20212;-87
2022/10/13 05:23:41;;;;;;;25.67;16.93;;;13.10;99.90;;;;;;5093539;28;20193;-86
2022/10/13 05:26:11;;;;;;;29.03;15.63;;;13.20;99.90;;;;;;5093583;28;20203;-86
2022/10/13 05:28:42;;;;;;;26.67;16.47;;;13.10;99.90;;;;;;5094797;28;20188;-86
2022/10/13 05:31:15;;;;;;;23.30;15.73;;;13.10;99.90;;;;;;5096322;28;20214;-87
2022/10/13 05:33:44;;;;;;;29.37;17.13;;;13.10;99.90;;;;;;5097142;28;20208;-86
2022/10/13 05:36:22;;;;;;;23.00;15.40;;;13.10;99.90;;;;;;5097107;28;20205;-87
2022/10/13 05:38:54;;;;;;;23.60;16.07;;;12.90;99.90;;;;;;5097286;28;20193;-86
2022/10/13 05:41:24;;;;;;;24.13;16.33;;;12.90;99.90;;;;;;5097053;28;20208;-87
2022/10/13 05:43:56;;;;;;;27.30;17.77;;;13.00;99.90;;;;;;5097054;28;20212;-86
2022/10/13 05:46:24;;;;;;;23.20;15.30;;;13.00;99.90;;;;;;5096028;28;20258;-86
2022/10/13 05:48:52;;;;;;;26.00;15.53;;;13.10;99.90;;;;;;5095872;28;20211;-86
2022/10/13 05:51:22;;;;;;;24.53;16.83;;;13.00;99.90;;;;;;5106227;28;20232;-85
2022/10/13 05:53:51;;;;;;;26.43;16.17;;;12.80;99.90;;;;;;5117371;28;20635;-86
2022/10/13 05:56:29;;;;;;;28.83;16.57;;;12.90;99.90;;;;;;5116901;28;20312;-87
2022/10/13 05:58:59;;;;;;;26.37;16.37;;;12.80;99.90;;;;;;5117295;28;20215;-87
2022/10/13 06:01:41;;;;;;;23.43;16.00;;;12.70;99.90;;;;;;5115524;28;20324;-87
2022/10/13 06:04:15;;;;;;;26.47;16.53;;;12.70;99.90;;;;;;5117119;28;20211;-87
2022/10/13 06:06:42;;;;;;;23.60;14.73;;;12.70;99.90;;;;;;5116486;28;20188;-86
2022/10/13 06:09:10;;;;;;;26.05;18.95;;;12.70;99.90;;;;;;5115895;28;20911;-86
2022/10/13 06:11:40;;;;;;;23.30;16.67;;;12.80;99.90;;;;;;5117175;28;20197;-86
2022/10/13 06:14:07;;;;;;;26.70;16.73;;;12.80;99.90;;;;;;5116984;28;20214;-86
2022/10/13 06:16:36;;;;;;;22.40;16.10;;;12.70;99.90;;;;;;5117325;28;20192;-86
2022/10/13 06:19:10;;;;;;;21.60;15.80;;;12.50;99.90;;;;;;5117014;28;20200;-85
2022/10/13 06:21:37;;;;;;;23.20;15.30;;;12.60;99.90;;;;;;5116908;28;20200;-86
2022/10/13 06:24:05;;;;;;;22.27;14.80;;;12.60;99.90;;;;;;5116938;28;20196;-87
2022/10/13 06:26:32;;;;;;;26.83;15.60;;;12.60;99.90;;;;;;5116810;28;20204;-87
2022/10/13 06:28:59;;;;;;;25.87;16.00;;;12.70;99.90;;;;;;5116861;28;20189;-87
2022/10/13 06:31:27;;;;;;;27.97;15.40;;;12.70;99.90;;;;;;5116752;28;20185;-86
2022/10/13 06:33:55;;;;;;;24.63;15.40;;;12.70;99.90;;;;;;5116226;28;20281;-87
2022/10/13 06:36:25;;;;;;;25.87;15.27;;;12.70;99.90;;;;;;5116871;28;20196;-86
2022/10/13 06:38:53;;;;;;;27.60;16.30;;;12.70;99.90;;;;;;5116229;28;20188;-87
2022/10/13 06:41:22;;;;;;;28.40;15.53;;;12.80;99.90;;;;;;5114882;28;20377;-85
2022/10/13 06:43:50;;;;;;;29.43;16.40;;;12.80;99.90;;;;;;5116256;28;20218;-87
2022/10/13 06:46:16;;;;;;;21.43;15.43;;;12.90;99.90;;;;;;5115854;28;20207;-86
2022/10/13 06:48:50;;;;;;;26.20;15.87;;;12.90;99.90;;;;;;5115831;28;20203;-87
2022/10/13 06:51:20;;;;;;;21.43;14.60;;;12.90;99.90;;;;;;5116435;28;20257;-87
2022/10/13 06:53:48;;;;;;;19.97;14.23;;;13.00;99.90;;;;;;5116014;28;20206;-86
2022/10/13 06:56:17;;;;;;;22.50;15.53;;;13.10;99.90;;;;;;5115998;28;20226;-87
2022/10/13 06:58:47;;;;;;;25.70;15.60;;;13.20;99.90;;;;;;5116674;28;20196;-87
2022/10/13 07:01:15;;;;;;;26.53;15.77;;;13.30;99.90;;;;;;5116183;28;20673;-88
2022/10/13 07:03:44;;;;;;;25.10;15.53;;;13.30;99.90;;;;;;5114651;28;20204;-87
2022/10/13 07:06:11;;;;;;;21.43;14.87;;;13.20;99.90;;;;;;5116617;28;20203;-87
2022/10/13 07:08:40;;;;;;;25.37;15.60;;;13.30;99.90;;;;;;5115544;28;20208;-88
2022/10/13 07:11:14;;;;;;;23.23;14.17;;;13.30;99.90;;;;;;5116509;28;20219;-88
2022/10/13 07:13:47;;;;;;;22.00;14.67;;;13.30;99.90;;;;;;5114481;28;20659;-88
2022/10/13 07:16:17;;;;;;;22.13;14.23;;;13.30;99.90;;;;;;5110359;28;20293;-88
2022/10/13 07:18:44;;;;;;;23.97;13.43;;;13.30;99.90;;;;;;5115557;28;20201;-88
2022/10/13 07:21:17;;;;;;;21.33;13.60;;;13.40;99.90;;;;;;5115998;28;20207;-88
2022/10/13 07:23:45;;;;;;;20.93;14.67;;;13.30;99.90;;;;;;5115375;28;20593;-88
2022/10/13 07:26:16;;;;;;;21.40;13.70;;;13.30;99.90;;;;;;5116962;27;20208;-92
2022/10/13 07:28:45;;;;;;;24.07;13.93;;;13.30;99.90;;;;;;5115606;28;20193;-91
2022/10/13 07:31:15;;;;;;;22.47;14.30;;;13.30;99.90;;;;;;5116488;28;20208;-91
2022/10/13 07:33:47;;;;;;;23.87;15.03;;;13.40;99.90;;;;;;5117574;28;20203;-91
2022/10/13 07:36:20;;;;;;;26.40;13.67;;;13.40;99.90;;;;;;5131385;27;20231;-92
2022/10/13 07:38:54;;;;;;;23.60;15.93;;;13.30;99.90;;;;;;5117301;28;20436;-93
2022/10/13 07:41:24;;;;;;;22.63;14.03;;;13.50;99.90;;;;;;5116259;28;20490;-92
2022/10/13 07:43:54;;;;;;;20.13;13.27;;;13.50;99.90;;;;;;5115957;28;20280;-92
2022/10/13 07:46:21;;;;;;;21.63;13.10;;;13.50;99.90;;;;;;5115988;28;20212;-89
2022/10/13 07:48:54;;;;;;;23.60;12.90;;;13.50;99.90;;;;;;5115502;28;20207;-91
2022/10/13 07:51:27;;;;;;;17.10;12.27;;;13.60;99.90;;;;;;5115495;28;20227;-87
2022/10/13 07:54:00;;;;;;;20.70;12.53;;;13.90;99.90;;;;;;5115916;28;20188;-89
2022/10/13 07:56:28;;;;;;;22.53;12.10;;;13.90;99.90;;;;;;5115253;28;20239;-91
2022/10/13 07:58:55;;;;;;;17.53;12.23;;;14.00;99.90;;;;;;5114926;28;20208;-87
2022/10/13 08:01:25;;;;;;;21.13;12.37;;;14.10;99.90;;;;;;5116218;28;20188;-88
2022/10/13 08:03:58;;;;;;;22.50;12.87;;;14.10;99.90;;;;;;5115873;28;20641;-90
2022/10/13 08:06:30;;;;;;;19.53;12.13;;;14.10;99.90;;;;;;5116093;28;20285;-90
2022/10/13 08:09:04;;;;;;;27.27;20.02;;;13.90;99.90;;;;;;5115260;27;20520;-89
2022/10/13 08:11:33;;;;;;;22.07;12.13;;;14.00;99.90;;;;;;5117179;28;20207;-89
2022/10/13 08:14:03;;;;;;;17.77;11.83;;;14.10;99.90;;;;;;5116540;28;20210;-89
2022/10/13 08:16:38;;;;;;;19.13;11.93;;;14.30;99.90;;;;;;5115761;28;20239;-90
2022/10/13 08:19:06;;;;;;;16.53;11.73;;;14.30;99.90;;;;;;5116967;28;20202;-89
2022/10/13 08:21:40;;;;;;;20.57;12.20;;;14.40;99.90;;;;;;5116064;28;20215;-88
2022/10/13 08:24:11;;;;;;;15.60;11.23;;;14.40;99.90;;;;;;5113866;28;20279;-87
2022/10/13 08:26:40;;;;;;;16.80;11.43;;;14.40;99.90;;;;;;5113956;28;20211;-86
2022/10/13 08:29:07;;;;;;;15.73;10.50;;;14.50;99.90;;;;;;5113128;28;20283;-87
2022/10/13 08:31:34;;;;;;;19.33;12.07;;;14.70;99.90;;;;;;5111369;28;20204;-86
2022/10/13 08:34:01;;;;;;;20.63;13.07;;;14.80;99.90;;;;;;5113622;28;20515;-86
2022/10/13 08:36:28;;;;;;;39.07;16.80;;;14.90;99.90;;;;;;5114956;28;20227;-86
2022/10/13 08:38:55;;;;;;;23.27;11.90;;;14.90;99.90;;;;;;5114105;28;20194;-87
2022/10/13 08:41:25;;;;;;;15.10;10.87;;;15.00;99.90;;;;;;5114369;28;20190;-83
2022/10/13 08:43:56;;;;;;;15.33;10.60;;;14.90;99.90;;;;;;5113281;28;20200;-82
2022/10/13 08:46:27;;;;;;;21.87;11.13;;;14.80;99.90;;;;;;5114490;28;20204;-88
2022/10/13 08:48:56;;;;;;;20.17;10.70;;;14.60;99.90;;;;;;5113575;28;20212;-85
2022/10/13 08:51:23;;;;;;;14.77;10.47;;;14.70;99.90;;;;;;5112577;28;20218;-85
2022/10/13 08:53:50;;;;;;;17.50;11.07;;;14.80;99.90;;;;;;5113268;28;20205;-85
2022/10/13 08:56:20;;;;;;;17.70;11.27;;;14.80;99.90;;;;;;5113505;28;20620;-84
2022/10/13 08:58:49;;;;;;;18.37;11.00;;;15.00;99.90;;;;;;5113475;28;20216;-85
2022/10/13 09:01:22;;;;;;;16.83;10.30;;;14.80;99.90;;;;;;5113650;28;20217;-84
2022/10/13 09:03:52;;;;;;;17.80;11.57;;;14.80;99.90;;;;;;5115528;28;20746;-87
2022/10/13 09:06:26;;;;;;;22.50;11.57;;;14.80;99.90;;;;;;5118439;27;20204;-87
2022/10/13 09:08:55;;;;;;;16.17;11.00;;;14.50;99.90;;;;;;5118561;28;20639;-88
2022/10/13 09:11:23;;;;;;;16.47;10.47;;;14.50;99.90;;;;;;5118277;28;20711;-87
2022/10/13 09:13:55;;;;;;;18.43;10.27;;;14.50;99.90;;;;;;5117750;28;20203;-87
2022/10/13 09:16:28;;;;;;;19.53;10.60;;;14.50;99.90;;;;;;5115540;28;20818;-87
2022/10/13 09:19:10;;;;;;;17.52;11.88;;;14.40;99.90;;;;;;5117626;28;20424;-87
2022/10/13 09:21:37;;;;;;;16.47;11.07;;;14.50;99.90;;;;;;5117643;28;20197;-87
2022/10/13 09:24:07;;;;;;;17.73;11.37;;;14.40;99.90;;;;;;5124549;27;20192;-87
2022/10/13 09:26:38;;;;;;;16.87;10.77;;;14.40;99.90;;;;;;5129564;27;20562;-87
2022/10/13 09:29:08;;;;;;;21.70;10.90;;;14.50;99.90;;;;;;5123288;27;20196;-88
2022/10/13 09:31:37;;;;;;;19.50;11.57;;;14.70;99.90;;;;;;5120444;27;20200;-88
2022/10/13 09:34:14;;;;;;;13.53;10.20;;;14.80;99.90;;;;;;5117897;28;20223;-88
2022/10/13 09:36:55;;;;;;;19.57;10.87;;;14.80;99.90;;;;;;5117669;28;20235;-88
2022/10/13 09:39:22;;;;;;;14.70;11.27;;;14.60;99.90;;;;;;5116514;28;20196;-88
2022/10/13 09:41:49;;;;;;;18.13;11.67;;;14.70;99.90;;;;;;5117683;28;20213;-88
2022/10/13 09:44:19;;;;;;;15.67;10.47;;;14.80;99.90;;;;;;5117429;28;20560;-87
2022/10/13 09:46:51;;;;;;;23.70;11.90;;;14.80;99.90;;;;;;5117389;28;20568;-87
2022/10/13 09:49:37;;;;;;;24.30;11.50;;;14.90;99.90;;;;;;5117866;28;20216;-87
2022/10/13 09:52:07;;;;;;;20.70;11.67;;;15.00;99.90;;;;;;5117865;28;20258;-88
2022/10/13 09:54:42;;;;;;;16.00;11.27;;;15.10;99.90;;;;;;5117604;28;20200;-86
2022/10/13 09:57:28;;;;;;;19.30;11.40;;;15.10;99.90;;;;;;5117712;28;20221;-88
2022/10/13 10:00:06;;;;;;;14.07;10.50;;;15.10;99.90;;;;;;5117042;28;20203;-89
2022/10/13 10:02:45;;;;;;;15.67;10.90;;;14.80;99.90;;;;;;5117411;27;20210;-91
2022/10/13 10:05:22;;;;;;;17.20;11.40;;;14.70;99.90;;;;;;5109028;28;20707;-88
2022/10/13 10:07:49;;;;;;;14.30;9.80;;;14.60;99.90;;;;;;5117190;28;20200;-89
2022/10/13 10:10:26;;;;;;;16.77;11.20;;;14.50;99.90;;;;;;5116728;28;20204;-88
2022/10/13 10:12:54;;;;;;;16.23;13.20;;;14.50;99.90;;;;;;5115995;28;20432;-87
2022/10/13 10:15:26;;;;;;;16.87;11.10;;;14.50;99.90;;;;;;5116334;28;20261;-87
2022/10/13 10:17:57;;;;;;;16.93;12.07;;;14.50;99.90;;;;;;5117065;27;20201;-88
2022/10/13 10:20:46;;;;;;;13.97;10.93;;;14.40;99.90;;;;;;5116788;28;20209;-89
2022/10/13 10:23:19;;;;;;;17.73;11.50;;;14.30;99.90;;;;;;5116696;28;20215;-89
2022/10/13 10:25:49;;;;;;;19.30;12.57;;;14.30;99.90;;;;;;5116656;28;20352;-89
2022/10/13 10:28:40;;;;;;;16.83;11.20;;;14.30;99.90;;;;;;5116753;28;20185;-88
2022/10/13 10:31:19;;;;;;;15.00;10.87;;;14.30;99.90;;;;;;5115502;28;20232;-87
2022/10/13 10:33:57;;;;;;;17.20;11.73;;;14.10;99.90;;;;;;5116488;28;20543;-87
2022/10/13 10:36:32;;;;;;;16.07;11.03;;;14.00;99.90;;;;;;5116307;28;20232;-87
2022/10/13 10:39:08;;;;;;;16.20;11.97;;;14.00;99.90;;;;;;5116034;28;20200;-90
2022/10/13 10:41:43;;;;;;;16.00;11.93;;;13.90;99.90;;;;;;5115919;28;20199;-89
2022/10/13 10:44:12;;;;;;;22.93;13.17;;;13.90;99.90;;;;;;5116327;28;20208;-89
2022/10/13 10:46:42;;;;;;;21.27;12.93;;;13.90;99.90;;;;;;5116991;28;20203;-89
2022/10/13 10:49:18;;;;;;;16.37;12.50;;;13.90;99.90;;;;;;5116467;28;20207;-89
2022/10/13 10:51:46;;;;;;;19.57;12.37;;;13.80;99.90;;;;;;5116568;28;20231;-90
2022/10/13 10:54:25;;;;;;;20.63;13.60;;;13.80;99.90;;;;;;5116174;28;20207;-92
2022/10/13 10:56:56;;;;;;;19.80;13.33;;;13.90;99.90;;;;;;5127109;28;20223;-90
2022/10/13 10:59:38;;;;;;;19.10;12.93;;;14.10;99.90;;;;;;5123096;28;20228;-90
2022/10/13 11:02:18;;;;;;;18.20;12.97;;;14.10;99.90;;;;;;5118306;28;20200;-91
2022/10/13 11:04:48;;;;;;;24.50;17.10;;;14.30;99.90;;;;;;5121768;28;20432;-88
2022/10/13 11:07:54;;;;;;;21.47;14.53;;;14.50;99.90;;;;;;5121135;28;20200;-88
2022/10/13 11:10:25;;;;;;;20.53;14.30;;;14.60;99.90;;;;;;5116714;28;20236;-86
2022/10/13 11:13:18;;;;;;;21.17;13.43;;;14.70;99.90;;;;;;5116392;28;20198;-89
2022/10/13 11:15:46;;;;;;;17.33;13.00;;;14.80;99.90;;;;;;5115503;28;20664;-89
2022/10/13 11:18:50;;;;;;;20.23;12.57;;;14.80;99.90;;;;;;5116074;28;20218;-90
2022/10/13 11:21:18;;;;;;;23.10;12.27;;;14.70;99.90;;;;;;5103713;28;20203;-89
2022/10/13 11:23:47;;;;;;;20.40;12.97;;;14.70;99.90;;;;;;5115936;28;20193;-91
2022/10/13 11:26:40;;;;;;;20.33;13.07;;;14.60;99.90;;;;;;5114899;28;20204;-88
2022/10/13 11:29:17;;;;;;;17.97;12.10;;;14.70;99.90;;;;;;5115322;28;20212;-89
2022/10/13 11:32:03;;;;;;;22.20;14.65;;;14.70;99.90;;;;;;5115299;28;20435;-86
2022/10/13 11:34:31;;;;;;;24.47;13.07;;;14.90;99.90;;;;;;5115422;27;20208;-90
2022/10/13 11:37:01;;;;;;;20.47;13.23;;;14.80;99.90;;;;;;5115363;28;20764;-89
2022/10/13 11:40:02;;;;;;;18.27;11.87;;;14.80;99.90;;;;;;5115081;28;20210;-92
2022/10/13 11:43:03;;;;;;;18.93;12.43;;;14.70;99.90;;;;;;5106881;27;20215;-90
2022/10/13 11:45:56;;;;;;;20.40;12.17;;;14.50;99.90;;;;;;5106133;28;20204;-86
2022/10/13 11:48:53;;;;;;;20.43;13.83;;;14.40;99.90;;;;;;5076783;28;20219;-87
2022/10/13 11:51:30;;;;;;;20.57;13.30;;;14.20;99.90;;;;;;5114520;28;20228;-91
2022/10/13 11:54:10;;;;;;;17.20;12.93;;;14.20;99.90;;;;;;5114970;28;20573;-90
2022/10/13 11:56:46;;;;;;;20.53;14.20;;;14.30;99.90;;;;;;5114636;28;20706;-89
2022/10/13 11:59:25;;;;;;;20.17;13.37;;;14.20;99.90;;;;;;5115323;28;20240;-91
2022/10/13 12:01:58;;;;;;;22.40;13.97;;;14.20;99.90;;;;;;5114500;28;20210;-90
2022/10/13 12:04:28;;;;;;;20.17;13.73;;;14.30;99.90;;;;;;5114823;28;20211;-90
2022/10/13 12:07:03;;;;;;;21.17;13.90;;;14.30;99.90;;;;;;5115173;28;20212;-89
2022/10/13 12:09:48;;;;;;;24.57;13.80;;;14.30;99.90;;;;;;5115608;28;20587;-92
2022/10/13 12:12:17;;;;;;;21.83;14.53;;;14.30;99.90;;;;;;5103555;28;20200;-91
2022/10/13 12:14:50;;;;;;;19.60;14.13;;;14.40;99.90;;;;;;5115339;28;20208;-91
2022/10/13 12:17:23;;;;;;;20.33;14.53;;;14.50;99.90;;;;;;5115628;28;20269;-88
2022/10/13 12:19:57;;;;;;;20.77;14.57;;;14.60;99.90;;;;;;5115332;28;20196;-88
2022/10/13 12:22:25;;;;;;;18.80;14.03;;;14.60;99.90;;;;;;5114757;27;20207;-90
2022/10/13 12:25:02;;;;;;;23.30;14.93;;;14.60;99.90;;;;;;5114841;28;20200;-90
2022/10/13 12:27:33;;;;;;;19.57;14.30;;;14.60;99.90;;;;;;5094628;28;20193;-88
2022/10/13 12:30:01;;;;;;;24.17;16.70;;;14.60;99.90;;;;;;5093365;28;20426;-86
2022/10/13 12:32:34;;;;;;;23.50;15.03;;;14.70;99.90;;;;;;5094037;28;20223;-86
2022/10/13 12:35:10;;;;;;;19.17;14.07;;;14.70;99.90;;;;;;5102782;28;20208;-86
2022/10/13 12:37:38;;;;;;;19.00;13.93;;;14.60;99.90;;;;;;5115988;27;20229;-90
2022/10/13 12:40:13;;;;;;;19.57;14.70;;;14.50;99.90;;;;;;5119862;27;20196;-90
2022/10/13 12:42:40;;;;;;;22.67;14.63;;;14.40;99.90;;;;;;5120345;28;20214;-90
2022/10/13 12:45:16;;;;;;;16.23;13.80;;;14.40;99.90;;;;;;5119506;28;20196;-85
2022/10/13 12:47:48;;;;;;;21.80;14.50;;;14.40;99.90;;;;;;5118136;28;20279;-88
2022/10/13 12:50:37;;;;;;;21.80;14.07;;;14.40;99.90;;;;;;5119029;28;20211;-90
2022/10/13 12:53:16;;;;;;;16.73;12.80;;;14.50;99.90;;;;;;5119289;28;20201;-90
2022/10/13 12:55:51;;;;;;;21.58;16.15;;;14.60;99.90;;;;;;5118377;28;20448;-90